Strona główna
METAR-TAF:

METAR-TAF

Lotnisko :

Hillsdale Municipal Airport

Hillsdale, Michigan, Stany Zjednoczone

Szerokość geograficzna: 41-55-17N, Długość geograficzna: 084-35-09W, wysokość: 360 m

Aktualna obserwacja pogody

Raport powstał 12 minut temu, godzina 06:15 UTC
Wiatr 3 kt od zachodnio-północny zachód
Temperatura 6°C
Wilgotność 100%
Ciśnienie 1026 hPa
Widzialność: 16.1 km
bezchmurnie

METAR: KJYM 010615Z AUTO 29003KT 10SM CLR 06/06 A3029 RMK AO2 T00640055

czas: 02:27 (06:27 UTC)


TAF: brakujący

Obserwacja i prognoza pogody dla ponad 4000 lotnisk (raport METAR i TAF).

Dostępne stacje oznaczono żółtymi i czerwonymi punktami na mapie.

Najedź kursorem aby zobaczyć nazwę stacji.

Kliknij aby zobaczyć obserwacje i prognozy pogody.

Aby zmienić mapę: kliknij na zielony przycisk z czarnym krzyżykiem, aby powiększyć; na zielony przycisk z myślnikiem, aby pomniejszyć; na zielone strzałki, aby przejść do map sąsiednich.


METAR-TAF: